aviador You're here:

DAUA Decoded Metar

ADRAR in ALGERIA
Report Time2017-09-23 00:08:00
UTC Time2017-09-23 00:22:53
Flight Rules lifr LIFR
Wind290° at 30 kt
W.Decomp.*RWY 22: 9.8 kt HW 28.4 kt RCW
W.Rank290° ranks 36
Current wind is above 290° avg. (9.1)
Visibility1000 m
Phenomena:Thuderstorm Rain
Clouds:Scattered CB 030 Hf
Broken 046 Hf
Expected CloudBase > 4,000 ft AGL from Temp-Dew spread
Ceiling4,600 ft
Temp24°C (ISA +11)
Dew Point14°C (54% RH)
AAT14.5°C
QNH1016 hPa
Density Alt2,221 ft
Elevation863 ft
Report Wrong Elevation
Raw Report
DAUA 230008Z 29030KT 1000 TSRA SCT030CB BKN046 24/14 Q1016=

Extra information for DAUA:More info

Metar Taf Metar & Taf Last 4 Metars F.Rules Stats Wind Profile Meteogram Temp Stats Airport Information Weather charts Add Link Nearby VenuesMetar ALERT Operation Metar Decoded Social comments